Time;durP1;ratioP1;P1;durP2;ratioP2;P2;SDS_P1;SDS_P2;PMS_P1;PMS_P2;Temp;Humidity;BMP_temperature;BMP_pressure;BME280_temperature;BME280_humidity;BME280_pressure;Samples;Min_cycle;Max_cycle;Signal;HPM_P1;HPM_P2
2022/12/11 00:02:24;;;;;;;21.43;12.10;;;;;;;-2.30;100.00;98553.06;5073821;28;20199;-79
2022/12/11 00:04:52;;;;;;;23.03;12.20;;;;;;;-2.19;100.00;98561.44;5074545;28;20202;-79
2022/12/11 00:07:22;;;;;;;22.00;12.37;;;;;;;-2.10;100.00;98561.25;5072277;28;20196;-79
2022/12/11 00:09:50;;;;;;;21.33;11.97;;;;;;;-2.11;100.00;98561.28;5038542;28;20200;-79
2022/12/11 00:12:18;;;;;;;17.87;11.83;;;;;;;-2.12;100.00;98562.19;5025420;28;20214;-79
2022/12/11 00:14:48;;;;;;;21.77;12.27;;;;;;;-2.07;100.00;98555.97;5027646;28;20194;-79
2022/12/11 00:17:17;;;;;;;22.10;12.67;;;;;;;-2.15;100.00;98554.44;4953263;29;20204;-79
2022/12/11 00:19:46;;;;;;;20.97;12.17;;;;;;;-2.16;100.00;98571.75;4945940;29;20275;-79
2022/12/11 00:22:15;;;;;;;20.07;11.27;;;;;;;-1.96;100.00;98567.84;4948761;29;20200;-79
2022/12/11 00:24:47;;;;;;;20.47;12.07;;;;;;;-1.92;100.00;98567.75;4953006;29;20193;-79
2022/12/11 00:27:17;;;;;;;20.43;12.37;;;;;;;-1.94;100.00;98571.25;4948246;29;20196;-79
2022/12/11 00:29:45;;;;;;;20.37;12.20;;;;;;;-2.05;100.00;98564.56;4941444;28;20203;-79
2022/12/11 00:32:13;;;;;;;21.07;12.07;;;;;;;-2.03;100.00;98569.72;4988631;28;20203;-79
2022/12/11 00:34:43;;;;;;;22.00;11.70;;;;;;;-2.04;100.00;98566.28;4987512;28;20224;-79
2022/12/11 00:37:13;;;;;;;18.83;11.77;;;;;;;-2.06;100.00;98560.28;4935136;29;20197;-79
2022/12/11 00:39:42;;;;;;;19.57;12.03;;;;;;;-2.00;100.00;98566.22;4935166;29;20272;-80
2022/12/11 00:42:12;;;;;;;22.33;12.20;;;;;;;-1.96;100.00;98573.03;4981745;28;20194;-79
2022/12/11 00:44:43;;;;;;;22.87;12.37;;;;;;;-2.12;100.00;98568.22;5006112;28;20198;-79
2022/12/11 00:47:15;;;;;;;20.93;12.57;;;;;;;-2.09;100.00;98565.53;5010059;28;20244;-79
2022/12/11 00:49:45;;;;;;;20.63;11.77;;;;;;;-2.07;100.00;98568.94;4981815;28;20197;-79
2022/12/11 00:52:17;;;;;;;21.83;13.07;;;;;;;-2.22;100.00;98571.91;5011866;28;20281;-79
2022/12/11 00:54:45;;;;;;;22.93;13.63;;;;;;;-2.22;100.00;98577.09;5019055;28;20632;-79
2022/12/11 00:57:16;;;;;;;24.83;13.23;;;;;;;-2.06;100.00;98580.19;5031821;28;20200;-79
2022/12/11 00:59:46;;;;;;;24.23;13.63;;;;;;;-1.87;100.00;98568.47;5034284;28;20233;-79
2022/12/11 01:02:14;;;;;;;22.23;13.00;;;;;;;-1.97;100.00;98567.00;5031870;28;20649;-79
2022/12/11 01:04:43;;;;;;;27.03;14.33;;;;;;;-2.11;100.00;98569.06;5030526;28;20217;-79
2022/12/11 01:07:11;;;;;;;22.53;13.60;;;;;;;-1.96;100.00;98573.88;5027085;28;20202;-79
2022/12/11 01:12:27;;;;;;;21.57;12.70;;;;;;;-1.87;100.00;98570.22;5074218;28;20188;-78
2022/12/11 01:14:58;;;;;;;20.07;11.97;;;;;;;-1.84;100.00;98568.41;5074184;28;20196;-79
2022/12/11 01:17:27;;;;;;;22.10;12.63;;;;;;;-1.87;100.00;98585.78;5074208;28;20199;-79
2022/12/11 01:19:59;;;;;;;23.93;12.97;;;;;;;-1.88;100.00;98578.91;5070259;28;20200;-79
2022/12/11 01:22:28;;;;;;;23.83;12.50;;;;;;;-1.94;100.00;98584.22;5070291;28;20227;-79
2022/12/11 01:24:58;;;;;;;22.83;13.30;;;;;;;-1.93;100.00;98585.94;4960622;28;20651;-79
2022/12/11 01:27:28;;;;;;;23.47;13.80;;;;;;;-1.94;100.00;98579.03;4988920;28;20195;-79
2022/12/11 01:29:59;;;;;;;20.97;12.57;;;;;;;-1.88;100.00;98578.91;4988249;28;20285;-79
2022/12/11 01:32:28;;;;;;;20.40;12.20;;;;;;;-1.86;100.00;98571.94;4990105;28;20207;-79
2022/12/11 01:34:56;;;;;;;22.90;12.63;;;;;;;-1.88;100.00;98568.53;4992718;28;20195;-79
2022/12/11 01:37:25;;;;;;;19.90;12.57;;;;;;;-1.84;100.00;98571.00;4931812;29;20205;-79
2022/12/11 01:39:53;;;;;;;23.63;12.63;;;;;;;-1.73;100.00;98570.75;4918768;29;20217;-79
2022/12/11 01:42:24;;;;;;;21.03;11.60;;;;;;;-1.74;100.00;98564.72;4950535;28;20205;-79
2022/12/11 01:45:40;;;;;;;18.57;11.33;;;;;;;-1.70;100.00;98572.44;5029602;28;20236;-79
2022/12/11 01:48:19;;;;;;;20.17;11.23;;;;;;;-1.78;100.00;98572.59;5031753;28;20281;-79
2022/12/11 01:50:52;;;;;;;20.07;11.47;;;;;;;-1.83;100.00;98566.69;4967720;28;20199;-79
2022/12/11 01:53:25;;;;;;;19.23;11.37;;;;;;;-1.89;100.00;98553.84;4916689;29;20206;-79
2022/12/11 01:55:56;;;;;;;19.53;10.93;;;;;;;-1.77;100.00;98559.59;4948097;28;20207;-79
2022/12/11 01:58:28;;;;;;;18.40;11.40;;;;;;;-1.83;100.00;98564.09;4896387;29;20226;-79
2022/12/11 02:00:58;;;;;;;17.47;10.50;;;;;;;-1.86;100.00;98559.81;4894039;29;20206;-78
2022/12/11 02:03:28;;;;;;;20.13;11.93;;;;;;;-1.93;100.00;98557.38;4894048;29;20217;-79
2022/12/11 02:06:00;;;;;;;18.17;10.43;;;;;;;-1.76;100.00;98556.09;4893909;29;20647;-79
2022/12/11 02:08:29;;;;;;;18.30;10.43;;;;;;;-1.79;100.00;98552.72;4890543;29;20678;-80
2022/12/11 02:11:10;;;;;;;18.03;10.53;;;;;;;-1.86;100.00;98558.94;4908159;29;20255;-79
2022/12/11 02:13:48;;;;;;;17.77;11.57;;;;;;;-1.82;100.00;98555.41;4950182;29;20656;-79
2022/12/11 02:16:21;;;;;;;21.73;12.23;;;;;;;-1.86;100.00;98549.41;5002367;28;20225;-79
2022/12/11 02:19:01;;;;;;;19.30;12.00;;;;;;;-1.79;100.00;98553.59;5007324;28;20317;-79
2022/12/11 02:21:35;;;;;;;20.63;11.10;;;;;;;-1.69;100.00;98545.56;5010221;28;20190;-79
2022/12/11 02:24:29;;;;;;;20.90;11.27;;;;;;;-1.84;100.00;98545.03;5066600;28;20207;-79
2022/12/11 02:27:23;;;;;;;20.43;11.23;;;;;;;-1.76;100.00;98550.06;5072989;28;20208;-79
2022/12/11 02:30:00;;;;;;;18.87;11.20;;;;;;;-1.72;100.00;98546.50;5071145;28;20196;-79
2022/12/11 02:32:35;;;;;;;19.43;12.00;;;;;;;-2.02;100.00;98546.34;5072926;28;20206;-79
2022/12/11 02:35:12;;;;;;;21.60;11.67;;;;;;;-1.87;100.00;98555.50;5072494;28;20196;-79
2022/12/11 02:37:44;;;;;;;17.83;10.83;;;;;;;-1.93;100.00;98549.59;5070817;28;20192;-79
2022/12/11 02:40:17;;;;;;;19.57;11.63;;;;;;;-1.81;100.00;98551.94;5030746;28;20225;-79
2022/12/11 02:42:48;;;;;;;20.83;11.30;;;;;;;-1.83;100.00;98545.94;5022088;28;20279;-79
2022/12/11 02:45:21;;;;;;;18.40;11.27;;;;;;;-1.88;100.00;98538.22;5029114;28;20202;-79
2022/12/11 02:47:54;;;;;;;19.73;10.90;;;;;;;-1.75;100.00;98543.97;5032202;28;20198;-79
2022/12/11 02:50:23;;;;;;;19.43;11.33;;;;;;;-1.76;100.00;98547.47;5029757;28;20201;-79
2022/12/11 02:52:55;;;;;;;23.23;11.77;;;;;;;-1.88;100.00;98547.75;5030771;28;20194;-79
2022/12/11 02:55:27;;;;;;;22.03;11.23;;;;;;;-1.75;100.00;98544.81;5027686;28;20672;-79
2022/12/11 02:58:02;;;;;;;19.03;11.60;;;;;;;-1.82;100.00;98553.66;5031088;28;20220;-79
2022/12/11 03:00:35;;;;;;;18.50;11.97;;;;;;;-1.77;100.00;98548.34;5035988;28;20244;-79
2022/12/11 03:03:03;;;;;;;20.03;11.57;;;;;;;-1.79;100.00;98553.59;5014604;28;20197;-79
2022/12/11 03:05:32;;;;;;;19.30;11.43;;;;;;;-1.68;100.00;98555.06;5054473;28;20196;-79
2022/12/11 03:08:02;;;;;;;19.23;11.57;;;;;;;-1.64;100.00;98557.56;5070802;28;20227;-79
2022/12/11 03:10:30;;;;;;;19.30;11.03;;;;;;;-1.70;100.00;98557.69;5071208;28;20224;-79
2022/12/11 03:13:00;;;;;;;20.10;11.30;;;;;;;-1.65;100.00;98565.38;5065551;28;20643;-79
2022/12/11 03:15:38;;;;;;;20.07;10.70;;;;;;;-1.73;100.00;98565.56;5072705;28;20223;-79
2022/12/11 03:18:14;;;;;;;19.07;11.27;;;;;;;-1.65;100.00;98570.56;5070483;28;20200;-80
2022/12/11 03:20:46;;;;;;;18.37;10.90;;;;;;;-1.70;100.00;98567.22;5069212;28;20247;-79
2022/12/11 03:23:21;;;;;;;17.33;10.47;;;;;;;-1.74;100.00;98556.06;5072828;28;20662;-79
2022/12/11 03:25:55;;;;;;;19.00;10.80;;;;;;;-1.85;100.00;98553.72;5072523;28;20192;-79
2022/12/11 03:28:32;;;;;;;19.67;11.90;;;;;;;-1.81;100.00;98555.38;5046169;28;20192;-79
2022/12/11 03:31:07;;;;;;;19.33;11.07;;;;;;;-1.78;100.00;98562.22;4989044;28;20223;-79
2022/12/11 03:33:39;;;;;;;18.60;11.47;;;;;;;-1.81;100.00;98563.16;4987134;28;20211;-79
2022/12/11 03:36:11;;;;;;;19.53;11.77;;;;;;;-1.80;100.00;98558.81;4984886;28;20187;-79
2022/12/11 03:38:47;;;;;;;21.47;12.53;;;;;;;-1.76;100.00;98552.66;4983252;28;20203;-80
2022/12/11 03:41:20;;;;;;;21.20;11.47;;;;;;;-1.74;100.00;98562.13;4991084;28;20233;-79
2022/12/11 03:43:53;;;;;;;20.13;12.30;;;;;;;-1.79;100.00;98561.38;4988576;28;20233;-79
2022/12/11 03:46:28;;;;;;;18.50;11.40;;;;;;;-1.85;100.00;98561.50;5003742;28;20236;-79
2022/12/11 03:48:59;;;;;;;20.53;11.77;;;;;;;-1.81;100.00;98560.56;5023190;28;20204;-79
2022/12/11 03:51:30;;;;;;;23.07;12.47;;;;;;;-1.70;100.00;98551.66;5021324;28;20190;-79
2022/12/11 03:53:59;;;;;;;21.13;12.83;;;;;;;-1.75;100.00;98549.16;5029448;28;20201;-79
2022/12/11 03:56:31;;;;;;;20.47;12.07;;;;;;;-1.73;100.00;98553.44;5061175;28;20215;-79
2022/12/11 03:59:00;;;;;;;18.47;12.27;;;;;;;-1.77;100.00;98553.53;5024907;28;20206;-79
2022/12/11 04:01:30;;;;;;;21.17;12.23;;;;;;;-1.87;100.00;98555.50;5023931;28;20210;-79
2022/12/11 04:03:59;;;;;;;20.60;12.93;;;;;;;-1.86;100.00;98556.34;5023500;28;20261;-79
2022/12/11 04:06:29;;;;;;;23.53;13.17;;;;;;;-1.82;100.00;98553.66;5026579;28;20297;-79
2022/12/11 04:08:57;;;;;;;20.97;12.57;;;;;;;-1.77;100.00;98556.13;4992763;28;20244;-79
2022/12/11 04:11:34;;;;;;;23.63;13.13;;;;;;;-1.83;100.00;98549.38;4989807;28;20334;-79
2022/12/11 04:16:51;;;;;;;22.37;13.13;;;;;;;-1.86;100.00;98549.41;4937889;28;20238;-80
2022/12/11 04:24:56;;;;;;;20.30;12.83;;;;;;;-1.97;100.00;98548.84;4974291;28;20199;-79
2022/12/11 04:30:17;;;;;;;23.63;13.17;;;;;;;-1.91;100.00;98550.44;4974613;28;20196;-80
2022/12/11 04:32:47;;;;;;;21.83;12.67;;;;;;;-1.91;100.00;98551.28;4978389;28;20233;-79
2022/12/11 04:35:16;;;;;;;22.40;12.40;;;;;;;-1.94;100.00;98553.09;5044855;28;20249;-79
2022/12/11 04:37:45;;;;;;;22.30;12.60;;;;;;;-1.97;100.00;98546.25;5073794;28;20197;-79
2022/12/11 04:40:16;;;;;;;22.33;13.03;;;;;;;-2.06;100.00;98549.91;5073964;28;20224;-79
2022/12/11 04:42:46;;;;;;;21.17;12.67;;;;;;;-2.08;100.00;98553.41;5074918;28;20752;-79
2022/12/11 04:45:15;;;;;;;22.67;12.93;;;;;;;-2.05;100.00;98542.97;5073790;28;20253;-79
2022/12/11 04:47:44;;;;;;;21.83;13.57;;;;;;;-2.03;100.00;98548.97;5070645;28;20205;-79
2022/12/11 04:50:17;;;;;;;22.50;13.43;;;;;;;-2.15;100.00;98546.66;5072429;28;20203;-79
2022/12/11 04:52:46;;;;;;;24.23;13.53;;;;;;;-2.06;100.00;98549.03;5074819;28;20197;-79
2022/12/11 04:55:16;;;;;;;23.57;13.53;;;;;;;-1.94;100.00;98564.31;5069656;28;20656;-79
2022/12/11 04:57:45;;;;;;;23.70;14.03;;;;;;;-1.96;100.00;98555.72;4933005;29;20205;-79
2022/12/11 05:00:15;;;;;;;22.80;14.23;;;;;;;-1.90;100.00;98565.97;4930082;29;20264;-79
2022/12/11 05:02:45;;;;;;;23.27;13.53;;;;;;;-1.90;100.00;98572.91;4931370;29;20208;-79
2022/12/11 05:05:15;;;;;;;23.13;12.80;;;;;;;-1.80;100.00;98566.59;4930595;29;20208;-79
2022/12/11 05:07:43;;;;;;;24.77;13.00;;;;;;;-1.75;100.00;98563.00;4934178;29;20256;-78
2022/12/11 05:10:13;;;;;;;20.80;13.13;;;;;;;-1.70;100.00;98560.31;4932434;29;20284;-79
2022/12/11 05:12:42;;;;;;;22.93;13.33;;;;;;;-1.66;100.00;98555.88;4929628;29;20199;-80
2022/12/11 05:15:11;;;;;;;21.93;13.43;;;;;;;-1.66;100.00;98550.69;4957478;28;20219;-79
2022/12/11 05:17:39;;;;;;;25.33;13.10;;;;;;;-1.72;100.00;98541.31;5074438;28;20193;-79
2022/12/11 05:20:09;;;;;;;24.30;13.70;;;;;;;-1.76;100.00;98542.25;5066781;28;20216;-79
2022/12/11 05:22:40;;;;;;;22.30;13.00;;;;;;;-1.75;100.00;98539.63;5074344;28;20655;-79
2022/12/11 05:25:09;;;;;;;22.73;13.23;;;;;;;-1.68;100.00;98548.13;5073648;28;20257;-79
2022/12/11 05:27:38;;;;;;;23.63;13.27;;;;;;;-1.61;100.00;98538.47;5071560;28;20195;-79
2022/12/11 05:30:10;;;;;;;23.07;13.80;;;;;;;-1.65;100.00;98535.06;5072074;28;20200;-79
2022/12/11 05:32:39;;;;;;;21.73;13.50;;;;;;;-1.65;100.00;98540.25;5072768;28;20242;-79
2022/12/11 05:35:08;;;;;;;24.97;14.37;;;;;;;-1.67;100.00;98544.63;5069277;28;20188;-79
2022/12/11 05:37:38;;;;;;;22.47;13.87;;;;;;;-1.74;100.00;98543.06;5072023;28;20196;-79
2022/12/11 05:40:12;;;;;;;23.67;13.40;;;;;;;-1.74;100.00;98543.97;5039302;28;20659;-79
2022/12/11 05:42:40;;;;;;;23.87;13.83;;;;;;;-1.74;100.00;98541.38;5072433;28;20694;-79
2022/12/11 05:45:10;;;;;;;24.37;14.60;;;;;;;-1.77;100.00;98537.97;5072743;28;20272;-79
2022/12/11 05:47:40;;;;;;;25.90;14.10;;;;;;;-1.66;100.00;98538.56;5074918;28;20208;-79
2022/12/11 05:50:09;;;;;;;22.57;13.80;;;;;;;-1.68;100.00;98537.75;5072284;28;20193;-79
2022/12/11 05:52:38;;;;;;;23.07;13.53;;;;;;;-1.66;100.00;98540.31;5064595;28;20712;-79
2022/12/11 05:55:10;;;;;;;20.37;13.23;;;;;;;-1.61;100.00;98541.91;5069720;28;20258;-79
2022/12/11 05:57:39;;;;;;;23.83;14.00;;;;;;;-1.61;100.00;98539.31;5073881;28;20192;-79
2022/12/11 06:00:13;;;;;;;24.47;14.57;;;;;;;-1.61;100.00;98539.31;5074550;28;20197;-79
2022/12/11 06:02:43;;;;;;;25.97;15.43;;;;;;;-1.58;100.00;98536.63;5073505;28;20269;-79
2022/12/11 06:05:11;;;;;;;25.43;15.50;;;;;;;-1.61;100.00;98534.13;5071974;28;20196;-79
2022/12/11 06:07:40;;;;;;;21.70;14.13;;;;;;;-1.55;100.00;98526.16;5073528;28;20188;-79
2022/12/11 06:10:11;;;;;;;26.97;15.17;;;;;;;-1.52;100.00;98533.03;5070417;28;20196;-79
2022/12/11 06:12:39;;;;;;;26.43;15.07;;;;;;;-1.59;100.00;98531.47;5072307;28;20188;-79
2022/12/11 06:15:09;;;;;;;24.87;15.87;;;;;;;-1.59;100.00;98528.88;5069463;28;20242;-80
2022/12/11 06:17:38;;;;;;;26.00;15.27;;;;;;;-1.49;100.00;98530.34;5074021;28;20196;-79
2022/12/11 06:20:07;;;;;;;30.93;16.80;;;;;;;-1.59;100.00;98531.47;5074585;28;20726;-79
2022/12/11 06:22:35;;;;;;;30.03;16.77;;;;;;;-1.80;100.00;98525.09;5024107;28;20229;-79
2022/12/11 06:25:05;;;;;;;27.17;16.00;;;;;;;-1.78;100.00;98525.88;4972200;28;20200;-79
2022/12/11 06:27:34;;;;;;;25.37;15.03;;;;;;;-1.81;100.00;98521.63;4968172;28;20270;-79
2022/12/11 06:30:02;;;;;;;25.97;15.43;;;;;;;-2.07;100.00;98517.06;4973776;28;20211;-79
2022/12/11 06:32:30;;;;;;;25.43;15.30;;;;;;;-2.22;100.00;98513.97;4912249;29;20234;-79
2022/12/11 06:34:59;;;;;;;26.20;15.17;;;;;;;-2.26;100.00;98512.34;4910805;29;20209;-79
2022/12/11 06:37:29;;;;;;;26.07;15.37;;;;;;;-2.32;100.00;98513.31;4912077;29;20198;-79
2022/12/11 06:39:57;;;;;;;27.30;16.03;;;;;;;-2.41;100.00;98501.44;4918440;29;20231;-79
2022/12/11 06:42:25;;;;;;;29.90;16.23;;;;;;;-2.15;100.00;98507.75;4945962;29;20223;-79
2022/12/11 06:44:58;;;;;;;25.43;15.17;;;;;;;-2.04;100.00;98510.94;4952686;29;20192;-79
2022/12/11 06:47:27;;;;;;;28.40;15.33;;;;;;;-1.99;100.00;98509.09;4950925;29;20239;-79
2022/12/11 06:49:56;;;;;;;29.30;15.47;;;;;;;-2.08;100.00;98505.00;5004003;28;20815;-79
2022/12/11 06:52:27;;;;;;;26.83;15.13;;;;;;;-1.81;100.00;98513.84;5072941;28;20229;-79
2022/12/11 06:54:56;;;;;;;30.93;16.43;;;;;;;-1.91;100.00;98507.19;5072869;28;20246;-79
2022/12/11 06:57:24;;;;;;;30.73;16.30;;;;;;;-1.98;100.00;98505.63;5047719;28;20683;-79
2022/12/11 06:59:53;;;;;;;26.73;15.27;;;;;;;-2.04;100.00;98501.41;5045654;28;20339;-79
2022/12/11 07:02:23;;;;;;;27.67;16.23;;;;;;;-1.96;100.00;98498.63;5048843;28;20243;-79
2022/12/11 07:04:51;;;;;;;29.30;15.97;;;;;;;-1.98;100.00;98505.63;5046228;28;20232;-79
2022/12/11 07:07:22;;;;;;;25.30;15.47;;;;;;;-2.07;100.00;98506.69;5040364;28;20197;-79
2022/12/11 07:09:51;;;;;;;27.33;16.07;;;;;;;-2.04;100.00;98509.19;5046307;28;20189;-79
2022/12/11 07:12:19;;;;;;;25.43;14.67;;;;;;;-2.07;100.00;98514.47;5050323;28;20231;-79
2022/12/11 07:14:51;;;;;;;29.80;17.67;;;;;;;-2.07;100.00;98516.22;5048597;28;20197;-79
2022/12/11 07:17:24;;;;;;;27.73;15.77;;;;;;;-2.02;100.00;98522.16;4991250;28;20199;-79
2022/12/11 07:19:52;;;;;;;25.33;15.17;;;;;;;-2.08;100.00;98528.34;4991128;28;20195;-79
2022/12/11 07:22:24;;;;;;;27.97;15.87;;;;;;;-1.93;100.00;98524.53;4940157;28;20242;-79
2022/12/11 07:24:57;;;;;;;28.33;15.77;;;;;;;-1.88;100.00;98519.22;4990411;28;20218;-79
2022/12/11 07:27:25;;;;;;;24.80;15.23;;;;;;;-1.91;100.00;98520.16;4985000;28;20187;-79
2022/12/11 07:29:54;;;;;;;28.10;16.10;;;;;;;-1.87;100.00;98519.19;4972844;28;20188;-79
2022/12/11 07:32:24;;;;;;;30.13;16.47;;;;;;;-1.81;100.00;98524.22;4984608;28;20242;-79
2022/12/11 07:34:53;;;;;;;26.37;15.77;;;;;;;-1.73;100.00;98529.25;5002345;28;20257;-79
2022/12/11 07:37:21;;;;;;;28.13;15.87;;;;;;;-1.65;100.00;98532.47;5049887;28;20686;-79
2022/12/11 07:39:50;;;;;;;28.93;16.83;;;;;;;-1.94;100.00;98533.19;5050368;28;20193;-79
2022/12/11 07:42:18;;;;;;;28.77;17.07;;;;;;;-2.10;100.00;98544.84;5051871;28;20275;-80
2022/12/11 07:44:46;;;;;;;26.77;15.90;;;;;;;-2.11;100.00;98538.78;5049708;28;20644;-79
2022/12/11 07:47:15;;;;;;;34.53;19.10;;;;;;;-2.16;100.00;98542.38;5049826;28;20209;-79
2022/12/11 07:49:47;;;;;;;29.63;17.07;;;;;;;-2.15;100.00;98544.91;5054187;28;20209;-79
2022/12/11 07:52:17;;;;;;;54.50;29.53;;;;;;;-2.21;100.00;98544.22;5047466;28;20316;-79
2022/12/11 07:54:45;;;;;;;29.43;16.83;;;;;;;-2.06;100.00;98549.03;5052535;28;20275;-80
2022/12/11 07:57:14;;;;;;;30.53;16.67;;;;;;;-2.05;100.00;98554.19;5038801;28;20250;-79
2022/12/11 07:59:43;;;;;;;48.83;27.70;;;;;;;-1.90;100.00;98553.00;5072320;28;20252;-79
2022/12/11 08:02:12;;;;;;;34.63;19.00;;;;;;;-1.75;100.00;98552.59;5069747;28;20223;-79
2022/12/11 08:04:40;;;;;;;31.77;17.87;;;;;;;-1.61;100.00;98556.63;5071609;28;20279;-79
2022/12/11 08:07:14;;;;;;;36.00;20.70;;;;;;;-1.61;100.00;98554.03;5074672;28;20184;-79
2022/12/11 08:09:42;;;;;;;35.57;20.53;;;;;;;-1.56;100.00;98547.81;5072722;28;20200;-80
2022/12/11 08:12:11;;;;;;;35.23;20.67;;;;;;;-1.53;100.00;98550.34;5074288;28;20200;-79
2022/12/11 08:14:40;;;;;;;31.53;18.37;;;;;;;-1.46;100.00;98546.69;5074378;28;20303;-79
2022/12/11 08:17:09;;;;;;;42.50;24.67;;;;;;;-1.55;100.00;98541.72;5071606;28;20204;-79
2022/12/11 08:19:37;;;;;;;42.87;25.43;;;;;;;-1.57;100.00;98548.72;5073500;28;20226;-79
2022/12/11 08:22:06;;;;;;;53.67;34.83;;;;;;;-1.69;100.00;98542.97;5039390;28;20698;-79
2022/12/11 08:24:36;;;;;;;79.43;60.70;;;;;;;-1.87;100.00;98541.69;5070167;28;20217;-79
2022/12/11 08:27:04;;;;;;;40.17;28.60;;;;;;;-1.94;100.00;98537.53;5071917;28;20207;-79
2022/12/11 08:29:32;;;;;;;35.90;23.33;;;;;;;-1.94;100.00;98545.31;5074783;28;20204;-79
2022/12/11 08:32:01;;;;;;;52.10;36.87;;;;;;;-1.96;100.00;98544.50;5075326;28;20670;-79
2022/12/11 08:34:36;;;;;;;38.50;28.13;;;;;;;-2.04;100.00;98552.44;5074558;28;20196;-79
2022/12/11 08:37:04;;;;;;;40.87;23.23;;;;;;;-1.97;100.00;98550.56;5070136;28;20222;-79
2022/12/11 08:39:33;;;;;;;30.37;16.63;;;;;;;-2.00;100.00;98555.84;5075589;28;20192;-79
2022/12/11 08:42:04;;;;;;;29.80;16.80;;;;;;;-1.79;100.00;98556.19;5075260;28;20213;-79
2022/12/11 08:44:33;;;;;;;30.37;16.80;;;;;;;-1.51;100.00;98547.72;5070661;28;20278;-79
2022/12/11 08:47:04;;;;;;;31.77;17.50;;;;;;;-1.44;100.00;98546.69;5070747;28;20241;-80
2022/12/11 08:49:32;;;;;;;32.50;18.33;;;;;;;-1.51;100.00;98545.13;5050426;28;20189;-79
2022/12/11 08:52:03;;;;;;;37.87;20.93;;;;;;;-1.27;100.00;98544.47;5044498;28;20193;-79
2022/12/11 08:54:31;;;;;;;32.30;17.47;;;;;;;-1.18;100.00;98546.81;4990678;28;20246;-79
2022/12/11 08:57:01;;;;;;;35.97;18.60;;;;;;;-1.05;100.00;98544.75;4985010;28;20199;-80
2022/12/11 08:59:31;;;;;;;45.83;23.53;;;;;;;-0.94;100.00;98545.31;4993266;28;20195;-80
2022/12/11 09:02:01;;;;;;;44.13;23.20;;;;;;;-0.83;100.00;98531.16;4989292;28;20281;-79
2022/12/11 09:04:29;;;;;;;33.57;22.07;;;;;;;-0.91;100.00;98528.78;4946085;28;20255;-80
2022/12/11 09:06:57;;;;;;;29.20;20.20;;;;;;;-1.24;100.00;98531.41;4996737;28;20206;-79
2022/12/11 09:09:27;;;;;;;26.00;15.30;;;;;;;-1.18;100.00;98536.44;5030123;28;20197;-79
2022/12/11 09:12:00;;;;;;;27.97;17.70;;;;;;;-0.84;100.00;98532.91;5035312;28;20246;-79
2022/12/11 09:14:30;;;;;;;38.70;22.30;;;;;;;-0.91;100.00;98524.44;5075544;28;20200;-81
2022/12/11 09:17:02;;;;;;;38.43;19.63;;;;;;;-0.77;100.00;98530.97;5067875;28;20299;-79
2022/12/11 09:19:31;;;;;;;24.73;14.77;;;;;;;-0.85;100.00;98531.22;5072098;28;20200;-79
2022/12/11 09:22:00;;;;;;;21.60;14.37;;;;;;;-0.95;100.00;98533.22;5071652;28;20203;-79
2022/12/11 09:24:29;;;;;;;21.27;13.80;;;;;;;-1.13;100.00;98531.13;5075398;28;20261;-79
2022/12/11 09:26:58;;;;;;;23.20;14.93;;;;;;;-1.23;100.00;98527.06;5073969;28;20196;-79
2022/12/11 09:29:26;;;;;;;19.83;12.13;;;;;;;-1.26;100.00;98525.38;5073824;28;20204;-79
2022/12/11 09:31:57;;;;;;;22.33;12.67;;;;;;;-1.24;100.00;98525.38;5073731;28;20454;-79
2022/12/11 09:34:25;;;;;;;21.73;13.30;;;;;;;-1.23;100.00;98522.72;5072737;28;20803;-79
2022/12/11 09:36:57;;;;;;;22.77;13.17;;;;;;;-0.90;100.00;98523.53;5073574;28;20231;-79
2022/12/11 09:39:25;;;;;;;25.73;14.87;;;;;;;-1.06;100.00;98532.66;5069593;28;20262;-79
2022/12/11 09:42:02;;;;;;;20.33;12.13;;;;;;;-1.04;100.00;98533.47;5039618;28;20257;-79
2022/12/11 09:44:42;;;;;;;20.73;12.33;;;;;;;-0.83;100.00;98539.81;5072263;28;20223;-80
2022/12/11 09:47:22;;;;;;;36.83;26.97;;;;;;;-1.04;100.00;98540.41;5049981;28;20200;-80
2022/12/11 09:49:57;;;;;;;31.13;19.93;;;;;;;-0.92;100.00;98535.72;5068105;28;20208;-79
2022/12/11 09:52:36;;;;;;;24.13;15.57;;;;;;;-0.99;100.00;98536.78;5012178;28;20217;-79
2022/12/11 09:55:19;;;;;;;23.67;14.33;;;;;;;-0.96;100.00;98538.47;5010102;28;20233;-79
2022/12/11 09:58:00;;;;;;;23.20;14.10;;;;;;;-0.92;100.00;98534.88;5012843;28;20221;-79
2022/12/11 10:00:37;;;;;;;24.67;15.10;;;;;;;-0.87;100.00;98530.38;5009251;28;20194;-79
2022/12/11 10:03:32;;;;;;;22.37;13.77;;;;;;;-0.96;100.00;98530.66;5009433;28;20268;-79
2022/12/11 10:06:07;;;;;;;22.40;13.87;;;;;;;-0.64;100.00;98535.78;4961593;28;20237;-79
2022/12/11 10:08:42;;;;;;;26.43;16.33;;;;;;;-0.47;100.00;98530.09;5011813;28;20201;-79
2022/12/11 10:11:30;;;;;;;23.70;15.00;;;;;;;-0.42;100.00;98525.59;5057146;28;20200;-80
2022/12/11 10:14:07;;;;;;;24.50;14.03;;;;;;;-0.27;100.00;98521.69;5067440;28;20196;-79
2022/12/11 10:16:39;;;;;;;24.57;15.40;;;;;;;-0.15;100.00;98515.25;5073226;28;20192;-79
2022/12/11 10:19:17;;;;;;;33.03;19.20;;;;;;;-0.11;100.00;98507.28;5072527;28;20184;-80
2022/12/11 10:21:47;;;;;;;31.30;17.67;;;;;;;-0.09;100.00;98515.06;5067619;28;20184;-79
2022/12/11 10:24:22;;;;;;;27.10;16.87;;;;;;;-0.40;100.00;98521.19;5070595;28;20690;-79
2022/12/11 10:27:18;;;;;;;22.33;13.70;;;;;;;-0.72;100.00;98508.31;5073342;28;20283;-79
2022/12/11 10:29:47;;;;;;;29.27;17.67;;;;;;;-0.55;100.00;98510.44;5072793;28;20191;-79
2022/12/11 10:32:24;;;;;;;22.80;13.87;;;;;;;-0.28;100.00;98493.97;5069811;28;20247;-79
2022/12/11 10:35:02;;;;;;;24.10;12.93;;;;;;;-0.22;100.00;98496.38;5072329;28;20195;-80
2022/12/11 10:37:31;;;;;;;20.73;12.47;;;;;;;-0.14;100.00;98494.38;5071087;28;20207;-80
2022/12/11 10:40:00;;;;;;;75.40;55.07;;;;;;;-0.39;100.00;98477.84;5049258;28;20201;-79
2022/12/11 10:42:33;;;;;;;22.60;15.13;;;;;;;-0.46;100.00;98482.38;5042238;28;20255;-80
2022/12/11 10:45:16;;;;;;;22.60;13.60;;;;;;;-0.55;100.00;98480.06;5050407;28;20203;-79
2022/12/11 10:47:45;;;;;;;18.47;11.93;;;;;;;-0.57;100.00;98471.47;5044007;28;20197;-79
2022/12/11 10:50:25;;;;;;;25.73;18.20;;;;;;;-0.50;100.00;98466.91;5049778;28;20196;-79
2022/12/11 10:52:54;;;;;;;21.83;14.93;;;;;;;-0.21;100.00;98456.44;5050949;28;20192;-80
2022/12/11 10:55:27;;;;;;;21.03;13.37;;;;;;;-0.15;100.00;98453.66;4987537;28;20207;-79
2022/12/11 10:57:59;;;;;;;20.87;11.87;;;;;;;-0.03;100.00;98453.25;5003306;28;20189;-79
2022/12/11 11:00:36;;;;;;;20.30;11.53;;;;;;;0.16;100.00;98450.88;5025553;28;20201;-79
2022/12/11 11:03:06;;;;;;;19.67;11.77;;;;;;;-0.30;100.00;98460.19;5028221;28;20308;-79
2022/12/11 11:05:37;;;;;;;20.27;11.93;;;;;;;-0.51;100.00;98447.84;5023014;28;20296;-79
2022/12/11 11:08:15;;;;;;;18.60;11.50;;;;;;;-0.18;100.00;98448.56;5030725;28;20198;-79
2022/12/11 11:10:55;;;;;;;20.87;12.17;;;;;;;-0.24;100.00;98456.56;5025581;28;20284;-79
2022/12/11 11:13:25;;;;;;;18.97;11.33;;;;;;;-0.12;100.00;98445.75;5044165;28;20188;-79
2022/12/11 11:16:08;;;;;;;21.00;13.03;;;;;;;-0.45;100.00;98452.88;5073999;28;20184;-79
2022/12/11 11:18:38;;;;;;;19.07;11.20;;;;;;;-0.11;100.00;98447.44;5074290;28;20253;-79
2022/12/11 11:21:16;;;;;;;15.90;10.10;;;;;;;0.12;100.00;98444.09;5073232;28;20257;-79
2022/12/11 11:23:45;;;;;;;15.60;9.40;;;;;;;0.18;100.00;98441.25;5070997;28;20265;-79
2022/12/11 11:26:21;;;;;;;17.47;9.47;;;;;;;0.22;100.00;98437.66;5067605;28;20199;-79
2022/12/11 11:28:53;;;;;;;18.53;11.30;;;;;;;-0.10;100.00;98448.28;5073542;28;20204;-80
2022/12/11 11:31:38;;;;;;;14.63;9.07;;;;;;;-0.10;100.00;98443.94;5077164;28;20237;-79
2022/12/11 11:34:10;;;;;;;13.93;7.90;;;;;;;-0.20;100.00;98442.53;5045754;28;20283;-79
2022/12/11 11:36:41;;;;;;;13.90;7.80;;;;;;;-0.05;100.00;98441.19;5075485;28;20196;-79
2022/12/11 11:39:21;;;;;;;13.63;8.97;;;;;;;-0.21;100.00;98434.78;5041385;28;20291;-79
2022/12/11 11:41:56;;;;;;;12.90;8.43;;;;;;;-0.29;100.00;98432.41;5076311;28;20207;-79
2022/12/11 11:44:29;;;;;;;13.37;7.53;;;;;;;0.00;100.00;98428.91;5076280;28;20224;-80